createdAt,value
2023-05-03T00:02:12.585Z,99412.25
2023-05-03T00:07:15.005Z,99472.41
2023-05-03T00:12:17.433Z,99468.91
2023-05-03T00:17:19.850Z,99460.22
2023-05-03T00:22:23.342Z,99458.50
2023-05-03T00:27:25.837Z,99467.16
2023-05-03T00:32:28.477Z,99359.06
2023-05-03T00:37:31.495Z,99466.44
2023-05-03T00:42:36.948Z,99398.31
2023-05-03T00:47:39.842Z,99378.31
2023-05-03T00:52:42.326Z,99390.50
2023-05-03T00:57:44.871Z,99436.78
2023-05-03T01:02:47.285Z,99371.34
2023-05-03T01:08:03.121Z,99414.97
2023-05-03T01:13:09.713Z,99351.34
2023-05-03T01:18:15.918Z,99422.00
2023-05-03T01:23:34.235Z,99418.63
2023-05-03T01:28:37.033Z,99352.28
2023-05-03T01:33:47.836Z,99411.63
2023-05-03T01:38:53.604Z,99313.06
2023-05-03T01:43:56.739Z,99388.91
2023-05-03T01:48:59.181Z,99380.19
2023-05-03T01:54:01.673Z,99403.75
2023-05-03T01:59:05.134Z,99294.75
2023-05-03T02:04:07.557Z,99415.06
2023-05-03T02:09:11.683Z,99399.38
2023-05-03T02:14:14.258Z,99398.53
2023-05-03T02:19:16.646Z,99293.91
2023-05-03T02:24:20.884Z,99394.19
2023-05-03T02:29:24.939Z,99358.41
2023-05-03T02:34:28.458Z,99375.00
2023-05-03T02:39:31.038Z,99346.22
2023-05-03T02:44:33.778Z,99386.41
2023-05-03T02:49:36.434Z,99395.94
2023-05-03T02:54:42.592Z,99273.03
2023-05-03T02:59:48.024Z,99361.94
2023-05-03T03:04:50.632Z,99407.34
2023-05-03T03:09:53.134Z,99363.69
2023-05-03T03:14:56.441Z,99368.97
2023-05-03T03:19:59.551Z,99404.75
2023-05-03T03:25:02.084Z,99341.03
2023-05-03T03:30:08.575Z,99412.56
2023-05-03T03:35:17.724Z,99422.19
2023-05-03T03:40:20.248Z,99393.41
2023-05-03T03:45:23.108Z,99416.91
2023-05-03T03:50:26.556Z,99427.38
2023-05-03T03:55:29.262Z,99396.78
2023-05-03T04:00:34.504Z,99388.09
2023-05-03T04:05:43.598Z,99400.25
2023-05-03T04:10:46.605Z,99422.09
2023-05-03T04:15:49.679Z,99402.91
2023-05-03T04:20:52.519Z,99455.25
2023-05-03T04:25:57.492Z,99428.19
2023-05-03T04:31:02.339Z,99426.44
2023-05-03T04:36:07.143Z,99332.19
2023-05-03T04:41:14.814Z,99306.00
2023-05-03T04:46:19.481Z,99433.38
2023-05-03T04:51:22.893Z,99465.63
2023-05-03T04:56:28.076Z,99436.84
2023-05-03T05:01:38.652Z,99451.72
2023-05-03T05:06:44.004Z,99391.47
2023-05-03T05:11:51.770Z,99456.94
2023-05-03T05:16:55.319Z,99433.41
2023-05-03T05:21:58.102Z,99430.84
2023-05-03T05:27:07.349Z,99457.06
2023-05-03T05:32:10.197Z,99457.06
2023-05-03T05:37:12.903Z,99402.16
2023-05-03T05:42:16.335Z,99456.25
2023-05-03T05:47:19.052Z,99439.72
2023-05-03T05:52:23.638Z,99455.47
2023-05-03T05:57:26.380Z,99414.50
2023-05-03T06:02:29.935Z,99418.00
2023-05-03T06:07:33.257Z,99393.66
2023-05-03T06:12:36.923Z,99401.50
2023-05-03T06:17:42.055Z,99420.75
2023-05-03T06:22:45.026Z,99429.47
2023-05-03T06:27:48.712Z,99397.25
2023-05-03T06:32:52.996Z,99420.75
2023-05-03T06:37:56.100Z,99435.53
2023-05-03T06:42:58.669Z,99434.66
2023-05-03T06:48:10.436Z,99471.22
2023-05-03T06:53:13.817Z,99469.41
2023-05-03T06:58:17.254Z,99484.97
2023-05-03T07:03:21.479Z,99390.88
2023-05-03T07:08:24.225Z,99494.44
2023-05-03T07:13:26.822Z,99487.38
2023-05-03T07:18:29.307Z,99415.88
2023-05-03T07:23:32.101Z,99495.75
2023-05-03T07:28:34.652Z,99429.44
2023-05-03T07:33:37.962Z,99465.09
2023-05-03T07:38:40.579Z,99505.00
2023-05-03T07:43:43.095Z,99504.09
2023-05-03T07:48:46.180Z,99509.22
2023-05-03T07:53:48.579Z,99497.13
2023-05-03T07:59:00.700Z,99489.38
2023-05-03T08:04:10.821Z,99531.00
2023-05-03T08:09:15.110Z,99469.38
2023-05-03T08:14:18.617Z,99531.19
2023-05-03T08:19:24.246Z,99499.03
2023-05-03T08:24:27.340Z,99542.56
2023-05-03T08:29:29.948Z,99536.44
2023-05-03T08:34:32.974Z,99479.03
2023-05-03T08:39:35.402Z,99505.97
2023-05-03T08:44:39.872Z,99450.22
2023-05-03T08:49:43.857Z,99489.25
2023-05-03T08:54:47.284Z,99395.94
2023-05-03T09:00:01.081Z,99433.97
2023-05-03T09:05:32.684Z,99548.72
2023-05-03T09:10:38.638Z,99535.69
2023-05-03T09:15:41.454Z,99539.28
2023-05-03T09:20:54.449Z,99525.41
2023-05-03T09:25:57.783Z,99563.00
2023-05-03T09:31:07.681Z,99513.44
2023-05-03T09:36:11.343Z,99497.91
2023-05-03T09:41:13.818Z,99576.34
2023-05-03T09:46:16.590Z,99527.59
2023-05-03T09:51:19.341Z,99550.19
2023-05-03T09:56:27.128Z,99578.94
2023-05-03T10:01:29.705Z,99584.19
2023-05-03T10:06:37.027Z,99446.63
2023-05-03T10:11:39.435Z,99512.66
2023-05-03T10:16:45.758Z,99544.84
2023-05-03T10:22:08.392Z,99577.06
2023-05-03T10:27:12.740Z,99550.09
2023-05-03T10:32:40.139Z,99592.81
2023-05-03T10:37:44.204Z,99595.50
2023-05-03T10:42:52.742Z,99557.25
2023-05-03T10:48:13.773Z,99606.81
2023-05-03T10:53:37.436Z,99601.56
2023-05-03T10:58:51.354Z,99599.88
2023-05-03T11:03:56.830Z,99599.81
2023-05-03T11:14:21.624Z,99495.88
2023-05-03T11:19:25.425Z,99520.09
2023-05-03T11:24:28.009Z,99598.41
2023-05-03T11:34:56.582Z,99595.88
2023-05-03T11:39:59.909Z,99577.31
2023-05-03T11:45:02.816Z,99592.00
2023-05-03T11:50:07.254Z,99540.72
2023-05-03T11:55:11.173Z,99569.31
2023-05-03T12:00:18.153Z,99579.50
2023-05-03T12:05:22.515Z,99554.19
2023-05-03T12:10:33.142Z,99584.56
2023-05-03T12:15:41.210Z,99568.91
2023-05-03T12:25:53.195Z,99564.53
2023-05-03T12:30:57.762Z,99544.66
2023-05-03T12:36:03.984Z,99596.00
2023-05-03T12:41:09.180Z,99551.56
2023-05-03T12:46:33.275Z,99544.28
2023-05-03T12:51:34.736Z,99493.56
2023-05-03T12:56:40.326Z,99539.56
2023-05-03T13:06:58.862Z,99591.16
2023-05-03T13:12:02.777Z,99567.06
2023-05-03T13:17:06.372Z,99526.88
2023-05-03T13:22:09.134Z,99585.84
2023-05-03T13:27:14.398Z,99579.03
2023-05-03T13:32:17.377Z,99586.19
2023-05-03T13:37:20.818Z,99604.47
2023-05-03T13:42:23.288Z,99581.03
2023-05-03T13:47:27.001Z,99541.97
2023-05-03T13:52:31.835Z,99464.56
2023-05-03T13:57:34.434Z,99537.53
2023-05-03T14:02:36.896Z,99566.28
2023-05-03T14:07:39.470Z,99581.94
2023-05-03T14:12:42.263Z,99564.53
2023-05-03T14:17:47.855Z,99595.84
2023-05-03T14:22:51.047Z,99556.88
2023-05-03T14:27:53.583Z,99573.28
2023-05-03T14:32:56.170Z,99478.63
2023-05-03T14:37:58.740Z,99595.97
2023-05-03T14:43:01.369Z,99547.41
2023-05-03T14:48:04.180Z,99467.53
2023-05-03T14:53:06.924Z,99577.97
2023-05-03T14:58:10.642Z,99194.81
2023-05-03T15:03:14.629Z,99621.75
2023-05-03T15:08:19.555Z,99619.16
2023-05-03T15:13:22.232Z,99524.44
2023-05-03T15:18:27.641Z,99527.13
2023-05-03T15:23:30.515Z,99130.13
2023-05-03T15:28:33.476Z,99461.22
2023-05-03T15:33:43.361Z,99252.75
2023-05-03T15:38:47.174Z,99646.75
2023-05-03T15:43:49.840Z,99347.47
2023-05-03T15:48:53.464Z,99681.00
2023-05-03T15:53:56.105Z,99302.31
2023-05-03T15:58:58.649Z,99660.91
2023-05-03T16:04:01.243Z,99506.94
2023-05-03T16:09:04.429Z,99481.75
2023-05-03T16:14:09.824Z,99553.34
2023-05-03T16:19:12.500Z,99373.34
2023-05-03T16:24:15.370Z,99374.22
2023-05-03T16:34:35.136Z,99669.47
2023-05-03T16:39:37.953Z,99662.56
2023-05-03T16:44:40.417Z,99707.91
2023-05-03T16:49:43.164Z,99685.31
2023-05-03T16:54:45.674Z,99588.69
2023-05-03T16:59:48.127Z,99627.91
2023-05-03T17:04:51.183Z,99703.88
2023-05-03T17:09:53.746Z,99680.38
2023-05-03T17:14:57.380Z,99728.47
2023-05-03T17:20:00.308Z,99627.31
2023-05-03T17:25:03.369Z,99650.06
2023-05-03T17:30:07.679Z,99817.72
2023-05-03T17:35:11.733Z,99740.00
2023-05-03T17:40:14.735Z,99833.44
2023-05-03T17:45:17.237Z,99742.63
2023-05-03T17:50:20.094Z,99817.72
2023-05-03T17:55:22.573Z,99397.78
2023-05-03T18:00:25.828Z,99581.03
2023-05-03T18:05:28.539Z,99712.00
2023-05-03T18:10:31.445Z,99641.19
2023-05-03T18:15:34.040Z,99752.19
2023-05-03T18:20:37.555Z,99498.09
2023-05-03T18:25:40.310Z,99680.53
2023-05-03T18:30:43.875Z,99480.69
2023-05-03T18:35:50.738Z,99192.03
2023-05-03T18:40:55.105Z,99827.31
2023-05-03T18:45:57.649Z,99379.22
2023-05-03T18:51:02.778Z,99715.31
2023-05-03T18:56:06.931Z,99531.78
2023-05-03T19:01:09.619Z,99618.31
2023-05-03T19:06:12.218Z,99300.41
2023-05-03T19:11:15.701Z,99744.75
2023-05-03T19:16:18.675Z,99717.59
2023-05-03T19:21:21.768Z,99665.06
2023-05-03T19:26:24.350Z,99767.09
2023-05-03T19:31:26.917Z,99565.97
2023-05-03T19:41:53.498Z,99430.13
2023-05-03T19:46:56.322Z,99894.38
2023-05-03T19:51:59.410Z,99807.47
2023-05-03T19:57:08.656Z,99582.63
2023-05-03T20:02:11.331Z,99912.72
2023-05-03T20:07:13.794Z,99913.31
2023-05-03T20:12:16.442Z,99754.72
2023-05-03T20:17:19.006Z,99389.03
2023-05-03T20:22:21.912Z,99417.25
2023-05-03T20:27:24.411Z,99881.25
2023-05-03T20:32:26.882Z,99866.13
2023-05-03T20:37:29.336Z,99916.75
2023-05-03T20:42:32.463Z,99936.78
2023-05-03T20:47:35.211Z,99880.38
2023-05-03T20:52:37.704Z,99900.38
2023-05-03T20:57:43.490Z,99904.63
2023-05-03T21:02:46.880Z,99747.47
2023-05-03T21:07:49.986Z,99912.00
2023-05-03T21:12:52.534Z,99967.84
2023-05-03T21:17:55.151Z,99602.84
2023-05-03T21:22:57.808Z,99965.78
2023-05-03T21:28:00.278Z,99849.66
2023-05-03T21:33:03.042Z,99356.97
2023-05-03T21:38:05.656Z,99827.34
2023-05-03T21:43:10.162Z,99983.19
2023-05-03T21:48:12.951Z,99798.03
2023-05-03T21:53:15.824Z,99679.00
2023-05-03T21:58:18.378Z,99610.38
2023-05-03T22:03:21.084Z,99730.31
2023-05-03T22:08:23.950Z,99983.16
2023-05-03T22:13:26.382Z,99848.56
2023-05-03T22:18:28.962Z,100009.53
2023-05-03T22:23:31.605Z,99817.31
2023-05-03T22:28:34.142Z,99996.97
2023-05-03T22:33:41.876Z,99986.25
2023-05-03T22:38:44.421Z,99869.84
2023-05-03T22:43:46.772Z,99798.38
2023-05-03T22:48:49.206Z,99953.56
2023-05-03T22:53:51.521Z,99785.63
2023-05-03T22:58:53.868Z,99857.38
2023-05-03T23:03:57.704Z,100003.03
2023-05-03T23:09:04.008Z,99859.09
2023-05-03T23:14:06.545Z,99943.34
2023-05-03T23:19:09.575Z,99741.03
2023-05-03T23:24:12.060Z,99980.88
2023-05-03T23:29:14.475Z,99941.69
2023-05-03T23:34:17.311Z,99565.91
2023-05-03T23:39:19.913Z,99968.81
2023-05-03T23:44:22.363Z,99838.03
2023-05-03T23:49:24.848Z,99593.72
2023-05-03T23:54:27.737Z,99641.22
2023-05-03T23:59:30.208Z,99931.09
